sensor_id;sensor_type;location;lat;lon;timestamp;P1;durP1;ratioP1;P2;durP2;ratioP2
3726;SDS011;1879;45.876;12.300;2024-01-27T00:00:17;97.17;;;87.30;;
3726;SDS011;1879;45.876;12.300;2024-01-27T00:02:44;91.67;;;83.17;;
3726;SDS011;1879;45.876;12.300;2024-01-27T00:05:11;89.83;;;81.17;;
3726;SDS011;1879;45.876;12.300;2024-01-27T00:07:39;81.30;;;73.37;;
3726;SDS011;1879;45.876;12.300;2024-01-27T00:10:07;87.33;;;78.97;;
3726;SDS011;1879;45.876;12.300;2024-01-27T00:12:34;86.87;;;78.63;;
3726;SDS011;1879;45.876;12.300;2024-01-27T00:15:02;89.03;;;80.30;;
3726;SDS011;1879;45.876;12.300;2024-01-27T00:17:30;94.27;;;84.73;;
3726;SDS011;1879;45.876;12.300;2024-01-27T00:19:57;90.60;;;82.10;;
3726;SDS011;1879;45.876;12.300;2024-01-27T00:22:23;85.87;;;77.37;;
3726;SDS011;1879;45.876;12.300;2024-01-27T00:24:52;87.83;;;78.93;;
3726;SDS011;1879;45.876;12.300;2024-01-27T00:27:19;92.70;;;83.70;;
3726;SDS011;1879;45.876;12.300;2024-01-27T00:29:46;89.93;;;81.13;;
3726;SDS011;1879;45.876;12.300;2024-01-27T00:32:13;84.93;;;76.60;;
3726;SDS011;1879;45.876;12.300;2024-01-27T00:34:39;76.17;;;68.13;;
3726;SDS011;1879;45.876;12.300;2024-01-27T00:37:06;74.37;;;67.20;;
3726;SDS011;1879;45.876;12.300;2024-01-27T00:39:33;68.37;;;61.87;;
3726;SDS011;1879;45.876;12.300;2024-01-27T00:42:02;68.50;;;61.70;;
3726;SDS011;1879;45.876;12.300;2024-01-27T00:44:29;70.70;;;63.63;;
3726;SDS011;1879;45.876;12.300;2024-01-27T00:46:57;72.07;;;65.30;;
3726;SDS011;1879;45.876;12.300;2024-01-27T00:49:24;72.23;;;65.13;;
3726;SDS011;1879;45.876;12.300;2024-01-27T00:51:51;80.80;;;72.20;;
3726;SDS011;1879;45.876;12.300;2024-01-27T00:54:18;76.80;;;69.50;;
3726;SDS011;1879;45.876;12.300;2024-01-27T00:56:44;87.67;;;78.57;;
3726;SDS011;1879;45.876;12.300;2024-01-27T00:59:13;79.30;;;71.60;;
3726;SDS011;1879;45.876;12.300;2024-01-27T01:01:40;87.93;;;79.30;;
3726;SDS011;1879;45.876;12.300;2024-01-27T01:04:07;97.03;;;87.50;;
3726;SDS011;1879;45.876;12.300;2024-01-27T01:06:34;91.17;;;81.80;;
3726;SDS011;1879;45.876;12.300;2024-01-27T01:09:00;92.30;;;83.27;;
3726;SDS011;1879;45.876;12.300;2024-01-27T01:11:28;98.13;;;88.20;;
3726;SDS011;1879;45.876;12.300;2024-01-27T01:13:55;89.60;;;80.53;;
3726;SDS011;1879;45.876;12.300;2024-01-27T01:16:23;93.30;;;84.60;;
3726;SDS011;1879;45.876;12.300;2024-01-27T01:18:50;102.70;;;92.60;;
3726;SDS011;1879;45.876;12.300;2024-01-27T01:21:17;100.57;;;90.17;;
3726;SDS011;1879;45.876;12.300;2024-01-27T01:23:44;95.77;;;85.97;;
3726;SDS011;1879;45.876;12.300;2024-01-27T01:26:11;97.77;;;88.13;;
3726;SDS011;1879;45.876;12.300;2024-01-27T01:28:38;114.30;;;103.10;;
3726;SDS011;1879;45.876;12.300;2024-01-27T01:31:06;107.40;;;96.53;;
3726;SDS011;1879;45.876;12.300;2024-01-27T01:33:34;105.03;;;94.60;;
3726;SDS011;1879;45.876;12.300;2024-01-27T01:36:01;88.90;;;80.43;;
3726;SDS011;1879;45.876;12.300;2024-01-27T01:38:28;87.90;;;79.07;;
3726;SDS011;1879;45.876;12.300;2024-01-27T01:40:55;83.17;;;74.70;;
3726;SDS011;1879;45.876;12.300;2024-01-27T01:43:21;85.90;;;77.50;;
3726;SDS011;1879;45.876;12.300;2024-01-27T01:45:48;92.27;;;82.90;;
3726;SDS011;1879;45.876;12.300;2024-01-27T01:48:18;81.67;;;73.73;;
3726;SDS011;1879;45.876;12.300;2024-01-27T01:50:47;91.37;;;82.10;;
3726;SDS011;1879;45.876;12.300;2024-01-27T01:53:15;96.77;;;86.70;;
3726;SDS011;1879;45.876;12.300;2024-01-27T01:55:42;88.27;;;79.93;;
3726;SDS011;1879;45.876;12.300;2024-01-27T01:58:11;86.53;;;78.23;;
3726;SDS011;1879;45.876;12.300;2024-01-27T02:00:38;86.63;;;77.83;;
3726;SDS011;1879;45.876;12.300;2024-01-27T02:03:05;91.57;;;82.57;;
3726;SDS011;1879;45.876;12.300;2024-01-27T02:05:36;93.13;;;83.67;;
3726;SDS011;1879;45.876;12.300;2024-01-27T02:08:05;92.63;;;83.20;;
3726;SDS011;1879;45.876;12.300;2024-01-27T02:10:33;92.50;;;82.70;;
3726;SDS011;1879;45.876;12.300;2024-01-27T02:13:02;93.03;;;83.90;;
3726;SDS011;1879;45.876;12.300;2024-01-27T02:15:30;85.67;;;77.57;;
3726;SDS011;1879;45.876;12.300;2024-01-27T02:17:58;87.97;;;79.40;;
3726;SDS011;1879;45.876;12.300;2024-01-27T02:20:24;89.20;;;80.00;;
3726;SDS011;1879;45.876;12.300;2024-01-27T02:22:51;89.83;;;80.57;;
3726;SDS011;1879;45.876;12.300;2024-01-27T02:25:20;83.80;;;75.13;;
3726;SDS011;1879;45.876;12.300;2024-01-27T02:27:46;80.70;;;72.40;;
3726;SDS011;1879;45.876;12.300;2024-01-27T02:30:13;82.67;;;74.53;;
3726;SDS011;1879;45.876;12.300;2024-01-27T02:32:40;79.17;;;71.10;;
3726;SDS011;1879;45.876;12.300;2024-01-27T02:35:07;85.90;;;77.23;;
3726;SDS011;1879;45.876;12.300;2024-01-27T02:37:34;87.07;;;78.87;;
3726;SDS011;1879;45.876;12.300;2024-01-27T02:40:01;101.70;;;91.60;;
3726;SDS011;1879;45.876;12.300;2024-01-27T02:42:30;94.53;;;84.93;;
3726;SDS011;1879;45.876;12.300;2024-01-27T02:44:57;92.87;;;84.13;;
3726;SDS011;1879;45.876;12.300;2024-01-27T02:47:24;94.37;;;85.00;;
3726;SDS011;1879;45.876;12.300;2024-01-27T02:49:51;93.67;;;84.20;;
3726;SDS011;1879;45.876;12.300;2024-01-27T02:52:18;105.20;;;94.50;;
3726;SDS011;1879;45.876;12.300;2024-01-27T02:54:45;91.23;;;81.93;;
3726;SDS011;1879;45.876;12.300;2024-01-27T02:57:12;104.90;;;94.40;;
3726;SDS011;1879;45.876;12.300;2024-01-27T02:59:44;95.47;;;85.77;;
3726;SDS011;1879;45.876;12.300;2024-01-27T03:02:11;92.90;;;83.50;;
3726;SDS011;1879;45.876;12.300;2024-01-27T03:04:38;103.00;;;92.70;;
3726;SDS011;1879;45.876;12.300;2024-01-27T03:07:05;95.40;;;86.13;;
3726;SDS011;1879;45.876;12.300;2024-01-27T03:09:32;103.23;;;92.47;;
3726;SDS011;1879;45.876;12.300;2024-01-27T03:11:59;93.40;;;84.23;;
3726;SDS011;1879;45.876;12.300;2024-01-27T03:14:26;86.47;;;78.07;;
3726;SDS011;1879;45.876;12.300;2024-01-27T03:16:55;96.03;;;86.27;;
3726;SDS011;1879;45.876;12.300;2024-01-27T03:19:22;89.50;;;80.13;;
3726;SDS011;1879;45.876;12.300;2024-01-27T03:21:49;107.70;;;96.20;;
3726;SDS011;1879;45.876;12.300;2024-01-27T03:24:16;99.73;;;89.57;;
3726;SDS011;1879;45.876;12.300;2024-01-27T03:26:43;98.43;;;88.57;;
3726;SDS011;1879;45.876;12.300;2024-01-27T03:29:10;92.10;;;83.20;;
3726;SDS011;1879;45.876;12.300;2024-01-27T03:31:37;98.30;;;88.30;;
3726;SDS011;1879;45.876;12.300;2024-01-27T03:34:06;97.87;;;88.30;;
3726;SDS011;1879;45.876;12.300;2024-01-27T03:36:36;91.63;;;82.60;;
3726;SDS011;1879;45.876;12.300;2024-01-27T03:39:02;92.40;;;83.27;;
3726;SDS011;1879;45.876;12.300;2024-01-27T03:41:29;93.57;;;84.57;;
3726;SDS011;1879;45.876;12.300;2024-01-27T03:43:56;97.53;;;87.90;;
3726;SDS011;1879;45.876;12.300;2024-01-27T03:46:23;98.70;;;88.60;;
3726;SDS011;1879;45.876;12.300;2024-01-27T03:48:50;97.07;;;87.80;;
3726;SDS011;1879;45.876;12.300;2024-01-27T03:51:18;101.90;;;91.33;;
3726;SDS011;1879;45.876;12.300;2024-01-27T03:53:45;98.77;;;88.87;;
3726;SDS011;1879;45.876;12.300;2024-01-27T03:56:12;96.10;;;86.20;;
3726;SDS011;1879;45.876;12.300;2024-01-27T03:58:39;92.17;;;83.37;;
3726;SDS011;1879;45.876;12.300;2024-01-27T04:01:06;84.47;;;76.07;;
3726;SDS011;1879;45.876;12.300;2024-01-27T04:03:33;83.90;;;75.00;;
3726;SDS011;1879;45.876;12.300;2024-01-27T04:06:00;85.70;;;77.17;;
3726;SDS011;1879;45.876;12.300;2024-01-27T04:08:28;83.83;;;75.63;;
3726;SDS011;1879;45.876;12.300;2024-01-27T04:10:56;83.80;;;75.33;;
3726;SDS011;1879;45.876;12.300;2024-01-27T04:13:23;78.47;;;70.60;;
3726;SDS011;1879;45.876;12.300;2024-01-27T04:15:50;77.33;;;69.20;;
3726;SDS011;1879;45.876;12.300;2024-01-27T04:18:18;84.00;;;75.70;;
3726;SDS011;1879;45.876;12.300;2024-01-27T04:20:45;78.63;;;70.80;;
3726;SDS011;1879;45.876;12.300;2024-01-27T04:23:13;78.03;;;69.90;;
3726;SDS011;1879;45.876;12.300;2024-01-27T04:25:42;77.13;;;69.03;;
3726;SDS011;1879;45.876;12.300;2024-01-27T04:28:09;74.00;;;66.63;;
3726;SDS011;1879;45.876;12.300;2024-01-27T04:30:37;83.67;;;75.60;;
3726;SDS011;1879;45.876;12.300;2024-01-27T04:33:05;88.07;;;79.53;;
3726;SDS011;1879;45.876;12.300;2024-01-27T04:35:32;90.77;;;81.83;;
3726;SDS011;1879;45.876;12.300;2024-01-27T04:37:59;83.33;;;75.13;;
3726;SDS011;1879;45.876;12.300;2024-01-27T04:40:26;89.27;;;80.10;;
3726;SDS011;1879;45.876;12.300;2024-01-27T04:42:54;89.00;;;79.70;;
3726;SDS011;1879;45.876;12.300;2024-01-27T04:45:22;94.37;;;84.93;;
3726;SDS011;1879;45.876;12.300;2024-01-27T04:47:48;94.40;;;84.57;;
3726;SDS011;1879;45.876;12.300;2024-01-27T04:50:15;97.23;;;87.73;;
3726;SDS011;1879;45.876;12.300;2024-01-27T04:52:42;93.33;;;83.90;;
3726;SDS011;1879;45.876;12.300;2024-01-27T04:55:09;86.23;;;77.63;;
3726;SDS011;1879;45.876;12.300;2024-01-27T04:57:36;94.30;;;84.77;;
3726;SDS011;1879;45.876;12.300;2024-01-27T05:00:05;87.63;;;79.20;;
3726;SDS011;1879;45.876;12.300;2024-01-27T05:02:37;80.23;;;72.10;;
3726;SDS011;1879;45.876;12.300;2024-01-27T05:05:05;79.93;;;71.87;;
3726;SDS011;1879;45.876;12.300;2024-01-27T05:07:32;83.67;;;75.07;;
3726;SDS011;1879;45.876;12.300;2024-01-27T05:09:59;93.07;;;83.10;;
3726;SDS011;1879;45.876;12.300;2024-01-27T05:12:26;87.30;;;78.00;;
3726;SDS011;1879;45.876;12.300;2024-01-27T05:14:53;76.77;;;68.93;;
3726;SDS011;1879;45.876;12.300;2024-01-27T05:17:22;71.03;;;64.00;;
3726;SDS011;1879;45.876;12.300;2024-01-27T05:19:49;66.23;;;59.33;;
3726;SDS011;1879;45.876;12.300;2024-01-27T05:22:16;67.90;;;61.03;;
3726;SDS011;1879;45.876;12.300;2024-01-27T05:24:43;67.00;;;60.00;;
3726;SDS011;1879;45.876;12.300;2024-01-27T05:27:10;67.43;;;60.53;;
3726;SDS011;1879;45.876;12.300;2024-01-27T05:29:37;69.67;;;62.40;;
3726;SDS011;1879;45.876;12.300;2024-01-27T05:32:04;70.77;;;63.60;;
3726;SDS011;1879;45.876;12.300;2024-01-27T05:34:33;69.07;;;61.87;;
3726;SDS011;1879;45.876;12.300;2024-01-27T05:37:00;68.03;;;61.40;;
3726;SDS011;1879;45.876;12.300;2024-01-27T05:39:27;63.23;;;56.87;;
3726;SDS011;1879;45.876;12.300;2024-01-27T05:41:55;67.13;;;59.93;;
3726;SDS011;1879;45.876;12.300;2024-01-27T05:44:22;68.53;;;59.20;;
3726;SDS011;1879;45.876;12.300;2024-01-27T05:46:49;55.33;;;49.83;;
3726;SDS011;1879;45.876;12.300;2024-01-27T05:49:16;56.47;;;50.47;;
3726;SDS011;1879;45.876;12.300;2024-01-27T05:51:44;50.43;;;45.17;;
3726;SDS011;1879;45.876;12.300;2024-01-27T05:54:11;52.23;;;46.87;;
3726;SDS011;1879;45.876;12.300;2024-01-27T05:56:39;60.37;;;53.87;;
3726;SDS011;1879;45.876;12.300;2024-01-27T05:59:06;62.87;;;56.50;;
3726;SDS011;1879;45.876;12.300;2024-01-27T06:01:33;56.97;;;51.17;;
3726;SDS011;1879;45.876;12.300;2024-01-27T06:04:00;55.10;;;49.37;;
3726;SDS011;1879;45.876;12.300;2024-01-27T06:06:27;59.10;;;52.97;;
3726;SDS011;1879;45.876;12.300;2024-01-27T06:08:55;58.10;;;52.50;;
3726;SDS011;1879;45.876;12.300;2024-01-27T06:11:23;63.07;;;56.80;;
3726;SDS011;1879;45.876;12.300;2024-01-27T06:13:50;59.97;;;53.87;;
3726;SDS011;1879;45.876;12.300;2024-01-27T06:16:17;59.77;;;53.60;;
3726;SDS011;1879;45.876;12.300;2024-01-27T06:18:45;57.73;;;51.90;;
3726;SDS011;1879;45.876;12.300;2024-01-27T06:21:12;64.57;;;57.30;;
3726;SDS011;1879;45.876;12.300;2024-01-27T06:23:39;66.87;;;59.60;;
3726;SDS011;1879;45.876;12.300;2024-01-27T06:26:08;70.40;;;63.40;;
3726;SDS011;1879;45.876;12.300;2024-01-27T06:28:35;60.43;;;54.33;;
3726;SDS011;1879;45.876;12.300;2024-01-27T06:31:03;67.57;;;61.00;;
3726;SDS011;1879;45.876;12.300;2024-01-27T06:33:30;68.75;;;61.60;;
3726;SDS011;1879;45.876;12.300;2024-01-27T06:35:57;123.90;;;112.20;;
3726;SDS011;1879;45.876;12.300;2024-01-27T06:38:24;105.03;;;94.53;;
3726;SDS011;1879;45.876;12.300;2024-01-27T06:40:52;82.13;;;73.40;;
3726;SDS011;1879;45.876;12.300;2024-01-27T06:43:21;85.40;;;77.20;;
3726;SDS011;1879;45.876;12.300;2024-01-27T06:45:48;75.60;;;68.07;;
3726;SDS011;1879;45.876;12.300;2024-01-27T06:48:15;70.23;;;63.00;;
3726;SDS011;1879;45.876;12.300;2024-01-27T06:50:42;107.63;;;96.27;;
3726;SDS011;1879;45.876;12.300;2024-01-27T06:53:09;75.87;;;68.20;;
3726;SDS011;1879;45.876;12.300;2024-01-27T06:55:36;93.30;;;84.30;;
3726;SDS011;1879;45.876;12.300;2024-01-27T06:58:03;80.10;;;71.80;;
3726;SDS011;1879;45.876;12.300;2024-01-27T07:00:31;77.50;;;69.60;;
3726;SDS011;1879;45.876;12.300;2024-01-27T07:02:58;84.97;;;76.10;;
3726;SDS011;1879;45.876;12.300;2024-01-27T07:05:25;84.90;;;76.50;;
3726;SDS011;1879;45.876;12.300;2024-01-27T07:07:52;95.30;;;84.90;;
3726;SDS011;1879;45.876;12.300;2024-01-27T07:10:19;86.17;;;77.07;;
3726;SDS011;1879;45.876;12.300;2024-01-27T07:12:46;83.00;;;73.90;;
3726;SDS011;1879;45.876;12.300;2024-01-27T07:15:13;66.23;;;59.33;;
3726;SDS011;1879;45.876;12.300;2024-01-27T07:17:41;64.47;;;57.80;;
3726;SDS011;1879;45.876;12.300;2024-01-27T07:20:08;66.20;;;59.23;;
3726;SDS011;1879;45.876;12.300;2024-01-27T07:22:36;68.13;;;61.13;;
3726;SDS011;1879;45.876;12.300;2024-01-27T07:25:03;65.33;;;58.50;;
3726;SDS011;1879;45.876;12.300;2024-01-27T07:27:32;75.70;;;68.07;;
3726;SDS011;1879;45.876;12.300;2024-01-27T07:29:59;69.33;;;62.47;;
3726;SDS011;1879;45.876;12.300;2024-01-27T07:32:26;68.30;;;61.53;;
3726;SDS011;1879;45.876;12.300;2024-01-27T07:34:54;66.50;;;59.90;;
3726;SDS011;1879;45.876;12.300;2024-01-27T07:37:21;71.90;;;64.90;;
3726;SDS011;1879;45.876;12.300;2024-01-27T07:39:48;63.67;;;56.97;;
3726;SDS011;1879;45.876;12.300;2024-01-27T07:42:15;64.47;;;57.97;;
3726;SDS011;1879;45.876;12.300;2024-01-27T07:44:42;67.70;;;60.40;;
3726;SDS011;1879;45.876;12.300;2024-01-27T07:47:09;66.50;;;58.50;;
3726;SDS011;1879;45.876;12.300;2024-01-27T07:49:36;85.63;;;77.17;;
3726;SDS011;1879;45.876;12.300;2024-01-27T07:52:04;85.00;;;76.40;;
3726;SDS011;1879;45.876;12.300;2024-01-27T07:54:32;81.83;;;73.63;;
3726;SDS011;1879;45.876;12.300;2024-01-27T07:57:04;88.23;;;79.83;;
3726;SDS011;1879;45.876;12.300;2024-01-27T07:59:31;78.87;;;71.03;;
3726;SDS011;1879;45.876;12.300;2024-01-27T08:01:59;83.30;;;74.90;;
3726;SDS011;1879;45.876;12.300;2024-01-27T08:04:26;73.93;;;66.40;;
3726;SDS011;1879;45.876;12.300;2024-01-27T08:06:53;82.93;;;74.67;;
3726;SDS011;1879;45.876;12.300;2024-01-27T08:09:22;76.27;;;68.90;;
3726;SDS011;1879;45.876;12.300;2024-01-27T08:11:50;77.20;;;69.27;;
3726;SDS011;1879;45.876;12.300;2024-01-27T08:14:17;78.30;;;70.70;;
3726;SDS011;1879;45.876;12.300;2024-01-27T08:16:45;81.17;;;72.67;;
3726;SDS011;1879;45.876;12.300;2024-01-27T08:19:12;77.97;;;70.57;;
3726;SDS011;1879;45.876;12.300;2024-01-27T08:21:45;75.43;;;67.97;;
3726;SDS011;1879;45.876;12.300;2024-01-27T08:24:11;73.33;;;65.93;;
3726;SDS011;1879;45.876;12.300;2024-01-27T08:26:40;74.73;;;67.03;;
3726;SDS011;1879;45.876;12.300;2024-01-27T08:29:08;69.43;;;62.90;;
3726;SDS011;1879;45.876;12.300;2024-01-27T08:31:35;76.30;;;68.93;;
3726;SDS011;1879;45.876;12.300;2024-01-27T08:34:03;76.97;;;69.30;;
3726;SDS011;1879;45.876;12.300;2024-01-27T08:36:30;70.37;;;63.27;;
3726;SDS011;1879;45.876;12.300;2024-01-27T08:38:57;64.17;;;57.40;;
3726;SDS011;1879;45.876;12.300;2024-01-27T08:41:24;64.80;;;58.47;;
3726;SDS011;1879;45.876;12.300;2024-01-27T08:43:52;62.37;;;56.20;;
3726;SDS011;1879;45.876;12.300;2024-01-27T08:46:19;70.10;;;62.73;;
3726;SDS011;1879;45.876;12.300;2024-01-27T08:48:47;68.20;;;61.30;;
3726;SDS011;1879;45.876;12.300;2024-01-27T08:51:14;68.33;;;60.90;;
3726;SDS011;1879;45.876;12.300;2024-01-27T08:53:42;72.90;;;65.33;;
3726;SDS011;1879;45.876;12.300;2024-01-27T08:56:13;74.87;;;67.17;;
3726;SDS011;1879;45.876;12.300;2024-01-27T08:58:40;71.80;;;64.30;;
3726;SDS011;1879;45.876;12.300;2024-01-27T09:01:09;67.27;;;60.67;;
3726;SDS011;1879;45.876;12.300;2024-01-27T09:03:38;71.70;;;63.97;;
3726;SDS011;1879;45.876;12.300;2024-01-27T09:06:05;77.20;;;69.17;;
3726;SDS011;1879;45.876;12.300;2024-01-27T09:08:33;83.67;;;74.40;;
3726;SDS011;1879;45.876;12.300;2024-01-27T09:11:00;89.77;;;80.23;;
3726;SDS011;1879;45.876;12.300;2024-01-27T09:13:27;95.33;;;85.67;;
3726;SDS011;1879;45.876;12.300;2024-01-27T09:15:54;88.50;;;78.80;;
3726;SDS011;1879;45.876;12.300;2024-01-27T09:18:24;92.27;;;82.87;;
3726;SDS011;1879;45.876;12.300;2024-01-27T09:20:51;102.37;;;91.70;;
3726;SDS011;1879;45.876;12.300;2024-01-27T09:23:18;98.87;;;88.40;;
3726;SDS011;1879;45.876;12.300;2024-01-27T09:25:45;103.80;;;92.60;;
3726;SDS011;1879;45.876;12.300;2024-01-27T09:28:12;99.20;;;88.40;;
3726;SDS011;1879;45.876;12.300;2024-01-27T09:30:39;96.77;;;86.17;;
3726;SDS011;1879;45.876;12.300;2024-01-27T09:33:06;95.93;;;86.07;;
3726;SDS011;1879;45.876;12.300;2024-01-27T09:35:34;96.50;;;86.23;;
3726;SDS011;1879;45.876;12.300;2024-01-27T09:38:01;99.17;;;88.67;;
3726;SDS011;1879;45.876;12.300;2024-01-27T09:40:28;99.77;;;89.27;;
3726;SDS011;1879;45.876;12.300;2024-01-27T09:42:57;100.30;;;90.00;;
3726;SDS011;1879;45.876;12.300;2024-01-27T09:45:25;103.20;;;92.03;;
3726;SDS011;1879;45.876;12.300;2024-01-27T09:47:53;92.70;;;83.47;;
3726;SDS011;1879;45.876;12.300;2024-01-27T09:50:23;101.43;;;90.67;;
3726;SDS011;1879;45.876;12.300;2024-01-27T09:52:51;103.10;;;92.10;;
3726;SDS011;1879;45.876;12.300;2024-01-27T09:55:18;97.27;;;86.67;;
3726;SDS011;1879;45.876;12.300;2024-01-27T09:57:45;96.30;;;86.23;;
3726;SDS011;1879;45.876;12.300;2024-01-27T10:00:13;89.43;;;80.13;;
3726;SDS011;1879;45.876;12.300;2024-01-27T10:02:42;95.07;;;84.70;;
3726;SDS011;1879;45.876;12.300;2024-01-27T10:05:11;93.50;;;83.77;;
3726;SDS011;1879;45.876;12.300;2024-01-27T10:07:40;94.93;;;85.07;;
3726;SDS011;1879;45.876;12.300;2024-01-27T10:10:09;94.43;;;84.80;;
3726;SDS011;1879;45.876;12.300;2024-01-27T10:12:38;94.07;;;84.30;;
3726;SDS011;1879;45.876;12.300;2024-01-27T10:15:08;96.80;;;86.47;;
3726;SDS011;1879;45.876;12.300;2024-01-27T10:17:44;91.23;;;82.20;;
3726;SDS011;1879;45.876;12.300;2024-01-27T10:20:11;96.43;;;86.60;;
3726;SDS011;1879;45.876;12.300;2024-01-27T10:22:40;97.90;;;88.23;;
3726;SDS011;1879;45.876;12.300;2024-01-27T10:25:09;99.87;;;89.80;;
3726;SDS011;1879;45.876;12.300;2024-01-27T10:27:36;95.90;;;86.50;;
3726;SDS011;1879;45.876;12.300;2024-01-27T10:30:04;91.50;;;82.60;;
3726;SDS011;1879;45.876;12.300;2024-01-27T10:32:32;91.30;;;82.40;;
3726;SDS011;1879;45.876;12.300;2024-01-27T10:35:02;91.67;;;82.47;;
3726;SDS011;1879;45.876;12.300;2024-01-27T10:37:30;95.67;;;85.70;;
3726;SDS011;1879;45.876;12.300;2024-01-27T10:40:00;90.50;;;81.20;;
3726;SDS011;1879;45.876;12.300;2024-01-27T10:42:30;96.80;;;87.13;;
3726;SDS011;1879;45.876;12.300;2024-01-27T10:44:57;90.30;;;81.23;;
3726;SDS011;1879;45.876;12.300;2024-01-27T10:47:25;99.87;;;90.10;;
3726;SDS011;1879;45.876;12.300;2024-01-27T10:49:54;97.50;;;87.90;;
3726;SDS011;1879;45.876;12.300;2024-01-27T10:52:23;95.93;;;86.00;;
3726;SDS011;1879;45.876;12.300;2024-01-27T10:54:54;96.87;;;87.10;;
3726;SDS011;1879;45.876;12.300;2024-01-27T10:57:24;98.00;;;88.17;;
3726;SDS011;1879;45.876;12.300;2024-01-27T10:59:54;101.93;;;91.83;;
3726;SDS011;1879;45.876;12.300;2024-01-27T11:02:22;103.13;;;92.90;;
3726;SDS011;1879;45.876;12.300;2024-01-27T11:04:50;103.97;;;93.27;;
3726;SDS011;1879;45.876;12.300;2024-01-27T11:07:19;102.00;;;92.07;;
3726;SDS011;1879;45.876;12.300;2024-01-27T11:09:48;98.73;;;88.87;;
3726;SDS011;1879;45.876;12.300;2024-01-27T11:12:19;101.30;;;91.50;;
3726;SDS011;1879;45.876;12.300;2024-01-27T11:14:47;98.10;;;88.50;;
3726;SDS011;1879;45.876;12.300;2024-01-27T11:17:18;105.20;;;94.83;;
3726;SDS011;1879;45.876;12.300;2024-01-27T11:19:45;104.10;;;94.00;;
3726;SDS011;1879;45.876;12.300;2024-01-27T11:22:23;103.03;;;92.60;;
3726;SDS011;1879;45.876;12.300;2024-01-27T11:24:51;101.70;;;91.70;;
3726;SDS011;1879;45.876;12.300;2024-01-27T11:27:18;102.80;;;93.10;;
3726;SDS011;1879;45.876;12.300;2024-01-27T11:29:54;101.47;;;91.27;;
3726;SDS011;1879;45.876;12.300;2024-01-27T11:32:22;102.93;;;92.63;;
3726;SDS011;1879;45.876;12.300;2024-01-27T11:34:49;98.03;;;88.17;;
3726;SDS011;1879;45.876;12.300;2024-01-27T11:37:17;99.53;;;89.03;;
3726;SDS011;1879;45.876;12.300;2024-01-27T11:39:49;98.43;;;88.73;;
3726;SDS011;1879;45.876;12.300;2024-01-27T11:42:16;92.67;;;83.40;;
3726;SDS011;1879;45.876;12.300;2024-01-27T11:44:44;92.47;;;83.60;;
3726;SDS011;1879;45.876;12.300;2024-01-27T11:47:14;89.77;;;81.37;;
3726;SDS011;1879;45.876;12.300;2024-01-27T11:49:48;78.10;;;71.40;;
3726;SDS011;1879;45.876;12.300;2024-01-27T11:52:18;78.33;;;71.27;;
3726;SDS011;1879;45.876;12.300;2024-01-27T11:54:45;73.80;;;67.30;;
3726;SDS011;1879;45.876;12.300;2024-01-27T11:57:12;76.27;;;69.90;;
3726;SDS011;1879;45.876;12.300;2024-01-27T11:59:39;74.80;;;68.50;;
3726;SDS011;1879;45.876;12.300;2024-01-27T12:02:06;69.80;;;63.90;;
3726;SDS011;1879;45.876;12.300;2024-01-27T12:04:33;71.17;;;65.17;;
3726;SDS011;1879;45.876;12.300;2024-01-27T12:07:01;74.60;;;68.37;;
3726;SDS011;1879;45.876;12.300;2024-01-27T12:09:29;73.07;;;67.27;;
3726;SDS011;1879;45.876;12.300;2024-01-27T12:11:56;69.87;;;63.90;;
3726;SDS011;1879;45.876;12.300;2024-01-27T12:14:23;69.33;;;63.73;;
3726;SDS011;1879;45.876;12.300;2024-01-27T12:16:51;69.90;;;64.27;;
3726;SDS011;1879;45.876;12.300;2024-01-27T12:19:19;76.97;;;71.00;;
3726;SDS011;1879;45.876;12.300;2024-01-27T12:21:49;69.90;;;63.97;;
3726;SDS011;1879;45.876;12.300;2024-01-27T12:24:17;72.77;;;66.97;;
3726;SDS011;1879;45.876;12.300;2024-01-27T12:26:44;70.80;;;64.90;;
3726;SDS011;1879;45.876;12.300;2024-01-27T12:29:11;69.93;;;64.23;;
3726;SDS011;1879;45.876;12.300;2024-01-27T12:31:38;69.90;;;64.30;;
3726;SDS011;1879;45.876;12.300;2024-01-27T12:34:05;78.20;;;72.13;;
3726;SDS011;1879;45.876;12.300;2024-01-27T12:36:34;68.03;;;62.40;;
3726;SDS011;1879;45.876;12.300;2024-01-27T12:39:06;75.20;;;69.20;;
3726;SDS011;1879;45.876;12.300;2024-01-27T12:41:34;78.77;;;72.50;;
3726;SDS011;1879;45.876;12.300;2024-01-27T12:44:01;71.53;;;65.50;;
3726;SDS011;1879;45.876;12.300;2024-01-27T12:46:28;72.07;;;66.17;;
3726;SDS011;1879;45.876;12.300;2024-01-27T12:48:56;68.90;;;63.13;;
3726;SDS011;1879;45.876;12.300;2024-01-27T12:51:23;68.57;;;62.77;;
3726;SDS011;1879;45.876;12.300;2024-01-27T12:53:50;66.93;;;61.70;;
3726;SDS011;1879;45.876;12.300;2024-01-27T12:56:17;65.70;;;60.67;;
3726;SDS011;1879;45.876;12.300;2024-01-27T12:58:45;61.47;;;56.50;;
3726;SDS011;1879;45.876;12.300;2024-01-27T13:01:13;61.20;;;56.37;;
3726;SDS011;1879;45.876;12.300;2024-01-27T13:03:40;60.27;;;55.47;;
3726;SDS011;1879;45.876;12.300;2024-01-27T13:06:07;62.00;;;57.17;;
3726;SDS011;1879;45.876;12.300;2024-01-27T13:08:35;62.00;;;57.20;;
3726;SDS011;1879;45.876;12.300;2024-01-27T13:11:03;62.60;;;57.67;;
3726;SDS011;1879;45.876;12.300;2024-01-27T13:13:30;60.33;;;55.60;;
3726;SDS011;1879;45.876;12.300;2024-01-27T13:15:58;62.13;;;57.17;;
3726;SDS011;1879;45.876;12.300;2024-01-27T13:18:25;60.90;;;55.80;;
3726;SDS011;1879;45.876;12.300;2024-01-27T13:20:52;64.53;;;59.20;;
3726;SDS011;1879;45.876;12.300;2024-01-27T13:23:19;67.70;;;62.20;;
3726;SDS011;1879;45.876;12.300;2024-01-27T13:25:46;69.40;;;63.63;;
3726;SDS011;1879;45.876;12.300;2024-01-27T13:28:13;66.97;;;61.70;;
3726;SDS011;1879;45.876;12.300;2024-01-27T13:30:40;61.80;;;56.73;;
3726;SDS011;1879;45.876;12.300;2024-01-27T13:33:09;64.70;;;59.30;;
3726;SDS011;1879;45.876;12.300;2024-01-27T13:35:37;59.73;;;54.97;;
3726;SDS011;1879;45.876;12.300;2024-01-27T13:38:07;65.00;;;59.63;;
3726;SDS011;1879;45.876;12.300;2024-01-27T13:40:34;63.93;;;58.93;;
3726;SDS011;1879;45.876;12.300;2024-01-27T13:43:01;64.93;;;59.53;;
3726;SDS011;1879;45.876;12.300;2024-01-27T13:45:28;64.63;;;59.50;;
3726;SDS011;1879;45.876;12.300;2024-01-27T13:47:55;62.43;;;57.13;;
3726;SDS011;1879;45.876;12.300;2024-01-27T13:50:24;62.90;;;57.57;;
3726;SDS011;1879;45.876;12.300;2024-01-27T13:52:51;62.23;;;57.43;;
3726;SDS011;1879;45.876;12.300;2024-01-27T13:55:18;61.67;;;56.77;;
3726;SDS011;1879;45.876;12.300;2024-01-27T13:57:47;59.53;;;54.83;;
3726;SDS011;1879;45.876;12.300;2024-01-27T14:00:14;59.50;;;54.90;;
3726;SDS011;1879;45.876;12.300;2024-01-27T14:02:42;58.10;;;53.23;;
3726;SDS011;1879;45.876;12.300;2024-01-27T14:05:09;61.33;;;56.37;;
3726;SDS011;1879;45.876;12.300;2024-01-27T14:07:43;57.07;;;52.37;;
3726;SDS011;1879;45.876;12.300;2024-01-27T14:10:10;62.67;;;57.77;;
3726;SDS011;1879;45.876;12.300;2024-01-27T14:12:37;59.53;;;54.70;;
3726;SDS011;1879;45.876;12.300;2024-01-27T14:15:04;58.47;;;53.77;;
3726;SDS011;1879;45.876;12.300;2024-01-27T14:17:33;62.67;;;57.17;;
3726;SDS011;1879;45.876;12.300;2024-01-27T14:20:00;60.47;;;55.67;;
3726;SDS011;1879;45.876;12.300;2024-01-27T14:22:28;59.30;;;54.47;;
3726;SDS011;1879;45.876;12.300;2024-01-27T14:24:56;61.10;;;56.10;;
3726;SDS011;1879;45.876;12.300;2024-01-27T14:27:23;61.80;;;56.97;;
3726;SDS011;1879;45.876;12.300;2024-01-27T14:29:52;61.20;;;56.17;;
3726;SDS011;1879;45.876;12.300;2024-01-27T14:32:19;64.10;;;58.70;;
3726;SDS011;1879;45.876;12.300;2024-01-27T14:34:46;64.17;;;58.83;;